Ashton, West Virginia
Current Conditions -  °F | °C
As of 10:35 AM on Friday 28 Nov 2014 (Local Time) from K3I2 Reporting Station
Overcast Overcast  
Wind Chill: 27°   Ceiling: 4000
Heat Index: 34°   Visibility: 10mi
Dew Point: 19°   Wind: 8mph
Humidity: 56%   Direction: 230°SW
Pressure: 30.43"   Gusts: NA
Location:  38.62°N, 82.16°W
Report Text: K3I2 281535Z AUTO 23007KT 10SM OVC040 01/M07 A3043 RMK AO2
Loading
Personal Weather Stations






























Interactive Weather Map New forecast layout! Learn more

10-Day Weather Forecast

Advertisements
Track Severe Weather on mobile